createdAt,value
2022-12-24T00:01:19.961Z,99765.84
2022-12-24T00:04:07.090Z,99751.13
2022-12-24T00:06:56.659Z,99776.16
2022-12-24T00:09:43.697Z,99778.72
2022-12-24T00:12:30.548Z,99656.59
2022-12-24T00:15:17.641Z,99777.78
2022-12-24T00:18:04.467Z,99774.28
2022-12-24T00:20:51.517Z,99778.59
2022-12-24T00:23:39.478Z,99786.34
2022-12-24T00:26:26.572Z,99784.59
2022-12-24T00:29:13.515Z,99789.75
2022-12-24T00:32:00.633Z,99774.22
2022-12-24T00:34:47.753Z,99786.34
2022-12-24T00:37:34.737Z,99794.03
2022-12-24T00:40:21.660Z,99804.41
2022-12-24T00:43:08.745Z,99812.16
2022-12-24T00:45:55.616Z,99815.63
2022-12-24T00:48:42.935Z,99813.84
2022-12-24T00:51:29.868Z,99819.03
2022-12-24T00:54:17.354Z,99824.22
2022-12-24T00:57:04.295Z,99814.78
2022-12-24T00:59:51.368Z,99826.03
2022-12-24T01:02:38.597Z,99838.91
2022-12-24T01:05:31.968Z,99845.81
2022-12-24T01:08:18.778Z,99846.66
2022-12-24T01:11:05.807Z,99837.19
2022-12-24T01:13:53.692Z,99850.09
2022-12-24T01:16:40.898Z,99857.06
2022-12-24T01:19:27.745Z,99833.81
2022-12-24T01:22:14.877Z,99854.47
2022-12-24T01:25:02.314Z,99856.19
2022-12-24T01:27:50.043Z,99832.06
2022-12-24T01:30:37.018Z,99861.38
2022-12-24T01:33:24.295Z,99871.75
2022-12-24T01:36:11.105Z,99870.06
2022-12-24T01:38:58.477Z,99863.22
2022-12-24T01:41:44.409Z,99863.19
2022-12-24T01:44:40.712Z,99881.34
2022-12-24T01:47:45.737Z,99888.28
2022-12-24T01:50:36.843Z,99883.97
2022-12-24T01:53:26.210Z,99871.94
2022-12-24T01:56:14.372Z,99893.50
2022-12-24T01:59:03.510Z,99896.91
2022-12-24T02:01:50.900Z,99869.34
2022-12-24T02:04:48.147Z,99881.34
2022-12-24T02:07:35.447Z,99899.41
2022-12-24T02:10:22.883Z,99904.59
2022-12-24T02:13:10.430Z,99901.97
2022-12-24T02:16:28.214Z,99901.09
2022-12-24T02:19:53.157Z,99907.16
2022-12-24T02:23:13.818Z,99914.94
2022-12-24T02:26:18.799Z,99905.38
2022-12-24T02:29:30.357Z,99910.53
2022-12-24T02:32:24.119Z,99908.81
2022-12-24T02:35:17.445Z,99914.84
2022-12-24T02:38:10.025Z,99852.88
2022-12-24T02:41:06.495Z,99780.63
2022-12-24T02:43:57.889Z,99930.41
2022-12-24T02:46:48.213Z,99910.53
2022-12-24T02:49:35.170Z,99889.00
2022-12-24T02:52:22.120Z,99904.53
2022-12-24T02:55:09.059Z,99950.28
2022-12-24T02:58:08.123Z,99956.38
2022-12-24T03:01:19.612Z,99964.19
2022-12-24T03:04:18.374Z,99959.84
2022-12-24T03:07:25.082Z,99967.66
2022-12-24T03:10:44.192Z,99963.34
2022-12-24T03:13:35.992Z,99919.41
2022-12-24T03:16:36.675Z,99971.13
2022-12-24T03:19:23.884Z,99972.00
2022-12-24T03:22:11.979Z,99959.94
2022-12-24T03:24:58.936Z,99981.53
2022-12-24T03:27:49.216Z,99966.03
2022-12-24T03:30:36.547Z,99918.69
2022-12-24T03:33:23.522Z,99993.69
2022-12-24T03:36:10.510Z,99998.03
2022-12-24T03:38:57.785Z,99980.81
2022-12-24T03:41:44.745Z,99994.66
2022-12-24T03:44:31.700Z,100017.13
2022-12-24T03:47:18.652Z,100015.41
2022-12-24T03:50:05.551Z,100011.09
2022-12-24T03:52:52.710Z,100013.75
2022-12-24T03:55:39.606Z,100020.69
2022-12-24T03:58:26.665Z,99915.56
2022-12-24T04:01:14.407Z,100029.38
2022-12-24T04:04:01.561Z,100025.94
2022-12-24T04:06:48.469Z,100032.84
2022-12-24T04:09:36.278Z,100032.88
2022-12-24T04:12:23.410Z,100012.19
2022-12-24T04:15:10.576Z,100047.59
2022-12-24T04:17:57.496Z,100051.09
2022-12-24T04:20:44.514Z,99920.06
2022-12-24T04:23:31.410Z,100052.81
2022-12-24T04:26:26.332Z,99993.41
2022-12-24T04:29:13.369Z,100064.09
2022-12-24T04:32:00.491Z,100067.56
2022-12-24T04:34:47.761Z,100062.38
2022-12-24T04:37:34.742Z,100056.38
2022-12-24T04:40:21.767Z,100065.88
2022-12-24T04:43:08.611Z,100077.16
2022-12-24T04:45:55.582Z,100080.63
2022-12-24T04:48:43.109Z,100083.22
2022-12-24T04:51:30.210Z,99955.59
2022-12-24T04:54:17.387Z,100106.59
2022-12-24T04:57:04.429Z,100091.09
2022-12-24T04:59:51.543Z,100094.50
2022-12-24T05:02:38.717Z,100094.53
2022-12-24T05:05:26.211Z,100105.78
2022-12-24T05:08:25.832Z,100105.78
2022-12-24T05:11:19.601Z,100106.66
2022-12-24T05:14:06.591Z,100114.44
2022-12-24T05:16:53.644Z,100046.22
2022-12-24T05:19:40.711Z,100091.09
2022-12-24T05:22:26.409Z,100102.34
2022-12-24T05:25:11.859Z,100124.78
2022-12-24T05:27:58.783Z,100081.63
2022-12-24T05:30:45.710Z,100138.59
2022-12-24T05:33:32.749Z,100151.56
2022-12-24T05:36:19.816Z,100155.03
2022-12-24T05:39:11.463Z,100160.19
2022-12-24T05:42:00.653Z,100131.66
2022-12-24T05:44:47.659Z,100168.78
2022-12-24T05:47:38.208Z,100166.19
2022-12-24T05:50:30.681Z,100173.97
2022-12-24T05:53:25.392Z,100176.53
2022-12-24T05:56:12.439Z,100179.13
2022-12-24T05:59:00.230Z,100190.34
2022-12-24T06:01:47.346Z,100185.09
2022-12-24T06:04:34.409Z,100192.00
2022-12-24T06:07:21.354Z,100205.78
2022-12-24T06:10:09.539Z,100213.53
2022-12-24T06:12:56.785Z,100163.34
2022-12-24T06:15:43.608Z,100221.25
2022-12-24T06:18:30.802Z,100224.69
2022-12-24T06:21:18.758Z,100235.91
2022-12-24T06:24:05.993Z,100227.22
2022-12-24T06:26:52.889Z,100209.88
2022-12-24T06:29:40.060Z,100244.44
2022-12-24T06:32:27.010Z,100243.56
2022-12-24T06:35:14.273Z,100242.69
2022-12-24T06:38:01.238Z,100144.88
2022-12-24T06:40:48.430Z,100195.84
2022-12-24T06:43:35.613Z,100254.69
2022-12-24T06:46:23.839Z,100262.41
2022-12-24T06:49:10.872Z,100270.13
2022-12-24T06:51:57.955Z,100286.44
2022-12-24T06:54:44.792Z,100275.22
2022-12-24T06:57:31.738Z,100276.91
2022-12-24T07:00:19.114Z,100272.47
2022-12-24T07:03:06.073Z,100291.50
2022-12-24T07:05:53.162Z,100296.63
2022-12-24T07:08:40.249Z,100300.88
2022-12-24T07:11:27.315Z,100294.81
2022-12-24T07:14:14.349Z,100299.97
2022-12-24T07:17:01.471Z,100286.13
2022-12-24T07:19:48.681Z,100301.63
2022-12-24T07:22:35.726Z,100311.94
2022-12-24T07:25:22.651Z,100245.16
2022-12-24T07:28:09.479Z,100316.13
2022-12-24T07:30:57.005Z,100327.31
2022-12-24T07:33:45.227Z,100271.84
2022-12-24T07:36:38.400Z,100340.13
2022-12-24T07:39:25.363Z,100347.88
2022-12-24T07:42:12.366Z,100352.13
2022-12-24T07:45:00.167Z,100356.38
2022-12-24T07:47:47.203Z,100358.94
2022-12-24T07:50:34.649Z,100356.31
2022-12-24T07:53:21.540Z,100355.47
2022-12-24T07:56:12.602Z,100285.94
2022-12-24T07:59:00.529Z,100363.97
2022-12-24T08:01:47.751Z,100361.34
2022-12-24T08:04:35.342Z,100364.78
2022-12-24T08:07:26.726Z,100378.50
2022-12-24T08:10:13.586Z,100370.72
2022-12-24T08:13:00.556Z,100368.09
2022-12-24T08:15:47.852Z,100361.19
2022-12-24T08:18:34.937Z,100367.16
2022-12-24T08:21:22.000Z,100388.69
2022-12-24T08:24:08.928Z,100381.78
2022-12-24T08:26:55.807Z,100386.94
2022-12-24T08:29:42.696Z,100393.78
2022-12-24T08:32:29.611Z,100392.81
2022-12-24T08:35:16.530Z,100376.31
2022-12-24T08:38:03.530Z,100393.66
2022-12-24T08:40:50.559Z,100391.03
2022-12-24T08:43:38.479Z,100386.56
2022-12-24T08:46:26.258Z,100396.09
2022-12-24T08:49:13.385Z,100403.03
2022-12-24T08:52:00.491Z,100394.28
2022-12-24T08:54:47.510Z,100405.50
2022-12-24T08:57:34.542Z,100400.25
2022-12-24T09:00:21.505Z,100415.88
2022-12-24T09:03:08.613Z,100415.84
2022-12-24T09:06:00.068Z,100382.00
2022-12-24T09:08:47.033Z,100416.69
2022-12-24T09:11:36.603Z,100363.63
2022-12-24T09:14:24.753Z,100335.84
2022-12-24T09:17:12.069Z,100432.13
2022-12-24T09:19:59.122Z,100401.72
2022-12-24T09:22:46.242Z,100432.91
2022-12-24T09:25:33.178Z,100442.38
2022-12-24T09:28:20.345Z,100425.03
2022-12-24T09:31:19.443Z,100433.75
2022-12-24T09:34:07.989Z,100433.75
2022-12-24T09:36:55.329Z,100413.84
2022-12-24T09:39:42.394Z,100439.78
2022-12-24T09:42:43.203Z,100431.16
2022-12-24T09:45:42.954Z,100396.38
2022-12-24T09:48:36.575Z,100439.78
2022-12-24T09:51:29.421Z,100435.50
2022-12-24T09:54:16.366Z,100442.41
2022-12-24T09:57:08.436Z,100438.13
2022-12-24T10:00:03.776Z,100432.03
2022-12-24T10:02:56.915Z,100443.22
2022-12-24T10:05:56.692Z,100451.06
2022-12-24T10:08:49.813Z,100460.53
2022-12-24T10:11:47.857Z,100455.38
2022-12-24T10:14:37.794Z,100460.56
2022-12-24T10:17:34.172Z,100465.75
2022-12-24T10:20:24.149Z,100464.03
2022-12-24T10:23:13.958Z,100466.66
2022-12-24T10:26:38.049Z,100466.69
2022-12-24T10:29:40.945Z,100464.16
2022-12-24T10:32:27.970Z,100465.88
2022-12-24T10:35:20.489Z,100461.63
2022-12-24T10:38:12.736Z,100455.56
2022-12-24T10:41:06.469Z,100467.72
2022-12-24T10:43:53.420Z,100333.28
2022-12-24T10:46:48.948Z,100472.03
2022-12-24T10:49:39.524Z,100475.53
2022-12-24T10:52:32.725Z,100461.63
2022-12-24T10:55:41.921Z,100475.53
2022-12-24T10:58:36.864Z,100467.72
2022-12-24T11:01:24.352Z,100466.84
2022-12-24T11:04:21.553Z,100482.44
2022-12-24T11:07:14.319Z,100491.97
2022-12-24T11:10:01.355Z,100494.56
2022-12-24T11:13:20.406Z,100497.13
2022-12-24T11:15:59.592Z,100504.06
2022-12-24T11:18:50.889Z,100457.16
2022-12-24T11:21:42.986Z,100504.06
2022-12-24T11:24:32.976Z,100498.94
2022-12-24T11:27:59.437Z,100511.88
2022-12-24T11:30:51.880Z,100509.28
2022-12-24T11:33:40.492Z,100529.09
2022-12-24T11:36:33.908Z,100500.50
2022-12-24T11:39:20.777Z,100516.19
2022-12-24T11:42:07.827Z,100495.34
2022-12-24T11:44:54.793Z,100517.94
2022-12-24T11:47:56.523Z,100514.53
2022-12-24T11:50:49.437Z,100526.56
2022-12-24T11:53:45.294Z,100522.31
2022-12-24T11:57:04.346Z,100536.09
2022-12-24T12:00:07.480Z,100397.22
2022-12-24T12:03:01.330Z,100532.69
2022-12-24T12:05:52.998Z,100531.00
2022-12-24T12:08:42.662Z,100526.69
2022-12-24T12:11:34.925Z,100511.00
2022-12-24T12:14:24.587Z,100535.34
2022-12-24T12:17:36.335Z,100540.53
2022-12-24T12:20:30.888Z,100548.31
2022-12-24T12:23:33.704Z,100544.03
2022-12-24T12:26:30.891Z,100544.03
2022-12-24T12:29:30.871Z,100548.34
2022-12-24T12:32:26.358Z,100541.44
2022-12-24T12:35:22.870Z,100553.53
2022-12-24T12:38:35.035Z,100561.25
2022-12-24T12:41:44.393Z,100562.16
2022-12-24T12:45:03.796Z,100562.16
2022-12-24T12:48:06.081Z,100558.69
2022-12-24T12:51:17.633Z,100573.31
2022-12-24T12:54:25.651Z,100575.06
2022-12-24T12:57:17.534Z,100571.56
2022-12-24T13:00:10.804Z,100578.47
2022-12-24T13:03:19.700Z,100575.88
2022-12-24T13:06:24.879Z,100601.72
2022-12-24T13:09:39.869Z,100592.25
2022-12-24T13:13:00.698Z,100593.97
2022-12-24T13:15:58.410Z,100600.03
2022-12-24T13:19:00.754Z,100599.19
2022-12-24T13:21:50.096Z,100584.34
2022-12-24T13:24:44.035Z,100612.13
2022-12-24T13:27:46.400Z,100609.53
2022-12-24T13:30:56.373Z,100609.56
2022-12-24T13:33:58.189Z,100610.44
2022-12-24T13:36:45.474Z,100601.84
2022-12-24T13:39:39.897Z,100609.59
2022-12-24T13:42:27.096Z,100613.06
2022-12-24T13:45:49.233Z,100612.19
2022-12-24T13:48:36.328Z,100616.56
2022-12-24T13:51:39.963Z,100619.13
2022-12-24T13:54:33.385Z,100635.47
2022-12-24T13:57:21.413Z,100634.63
2022-12-24T14:00:16.821Z,100647.56
2022-12-24T14:03:15.517Z,100649.28
2022-12-24T14:06:02.694Z,100656.19
2022-12-24T14:09:01.342Z,100655.38
2022-12-24T14:11:48.275Z,100655.41
2022-12-24T14:14:48.741Z,100670.00
2022-12-24T14:17:38.745Z,100672.53
2022-12-24T14:20:29.148Z,100677.63
2022-12-24T14:23:16.499Z,100672.41
2022-12-24T14:26:03.536Z,100681.78
2022-12-24T14:28:57.037Z,100693.06
2022-12-24T14:31:44.785Z,100691.34
2022-12-24T14:34:33.525Z,100686.16
2022-12-24T14:37:23.485Z,100694.75
2022-12-24T14:40:11.015Z,100694.75
2022-12-24T14:43:12.968Z,100707.69
2022-12-24T18:56:30.489Z,100847.00
2022-12-24T18:59:22.756Z,100791.16
2022-12-24T19:02:10.023Z,100859.94
2022-12-24T19:04:56.989Z,100860.88
2022-12-24T19:07:44.157Z,100866.94
2022-12-24T19:10:31.735Z,100884.19
2022-12-24T19:13:18.727Z,100873.88
2022-12-24T19:16:05.722Z,100885.91
2022-12-24T19:18:53.089Z,100892.84
2022-12-24T19:21:40.504Z,100878.94
2022-12-24T19:24:27.717Z,100891.19
2022-12-24T19:27:14.633Z,100876.50
2022-12-24T19:30:01.836Z,100894.66
2022-12-24T19:32:48.909Z,100902.41
2022-12-24T19:35:35.935Z,100897.25
2022-12-24T19:38:23.454Z,100896.41
2022-12-24T19:41:10.424Z,100885.84
2022-12-24T19:44:01.363Z,100844.88
2022-12-24T19:46:51.329Z,100905.78
2022-12-24T19:49:38.260Z,100905.75
2022-12-24T19:52:25.152Z,100900.59
2022-12-24T19:55:12.047Z,100905.72
2022-12-24T19:57:59.407Z,100915.13
2022-12-24T20:00:46.424Z,100896.78
2022-12-24T20:03:33.535Z,100926.25
2022-12-24T20:06:20.540Z,100878.19
2022-12-24T20:09:07.803Z,100934.88
2022-12-24T20:11:55.742Z,100926.09
2022-12-24T20:14:42.679Z,100946.94
2022-12-24T20:17:29.948Z,100945.25
2022-12-24T20:20:16.948Z,100945.34
2022-12-24T20:23:04.239Z,100956.53
2022-12-24T20:25:57.200Z,100961.72
2022-12-24T20:28:45.644Z,100966.06
2022-12-24T20:31:35.382Z,100967.81
2022-12-24T20:34:23.973Z,100972.06
2022-12-24T20:37:10.985Z,100981.56
2022-12-24T20:39:57.931Z,100983.28
2022-12-24T20:42:45.106Z,100972.97
2022-12-24T20:45:32.592Z,100922.25
2022-12-24T20:48:19.824Z,100978.97
2022-12-24T20:51:06.869Z,100929.09
2022-12-24T20:53:54.238Z,100981.50
2022-12-24T20:56:41.813Z,100989.22
2022-12-24T20:59:28.880Z,100984.88
2022-12-24T21:02:15.937Z,100990.03
2022-12-24T21:05:03.020Z,100991.69
2022-12-24T21:07:49.926Z,100929.69
2022-12-24T21:10:37.269Z,100996.88
2022-12-24T21:13:24.774Z,100993.41
2022-12-24T21:16:11.964Z,100987.41
2022-12-24T21:18:59.059Z,100965.53
2022-12-24T21:21:46.156Z,100993.47
2022-12-24T21:24:33.921Z,101009.81
2022-12-24T21:27:21.533Z,101005.50
2022-12-24T21:30:08.425Z,101006.38
2022-12-24T21:32:56.525Z,101013.28
2022-12-24T21:35:43.759Z,101015.72
2022-12-24T21:38:30.874Z,101012.38
2022-12-24T21:41:27.585Z,101016.78
2022-12-24T21:44:14.736Z,101017.66
2022-12-24T21:47:01.869Z,100948.34
2022-12-24T21:49:48.365Z,101018.56
2022-12-24T21:52:35.886Z,101014.91
2022-12-24T21:55:23.391Z,101026.31
2022-12-24T21:58:13.197Z,101022.94
2022-12-24T22:01:00.517Z,101011.63
2022-12-24T22:03:47.748Z,101012.50
2022-12-24T22:06:35.122Z,101029.06
2022-12-24T22:09:20.761Z,101024.88
2022-12-24T22:12:08.054Z,101022.34
2022-12-24T22:14:55.301Z,101032.69
2022-12-24T22:17:42.346Z,100977.75
2022-12-24T22:20:30.231Z,101038.06
2022-12-24T22:23:17.190Z,101035.53
2022-12-24T22:26:04.788Z,101049.38
2022-12-24T22:28:51.892Z,101054.59
2022-12-24T22:31:40.884Z,101043.34
2022-12-24T22:34:27.979Z,101051.28
2022-12-24T22:37:14.989Z,101061.69
2022-12-24T22:40:03.515Z,101062.59
2022-12-24T22:42:53.406Z,101023.44
2022-12-24T22:45:40.454Z,101024.16
2022-12-24T22:48:27.810Z,101072.28
2022-12-24T22:51:14.750Z,101069.50
2022-12-24T22:54:02.007Z,101038.91
2022-12-24T22:56:49.026Z,101067.97
2022-12-24T22:59:36.025Z,101065.31
2022-12-24T23:02:28.613Z,101079.31
2022-12-24T23:05:16.510Z,101097.38
2022-12-24T23:08:03.765Z,101084.53
2022-12-24T23:10:50.824Z,101027.78
2022-12-24T23:13:36.603Z,101075.69
2022-12-24T23:16:25.903Z,101094.00
2022-12-24T23:19:13.129Z,101074.00
2022-12-24T23:22:00.022Z,101095.78
2022-12-24T23:24:47.378Z,101081.03
2022-12-24T23:27:34.229Z,101091.47
2022-12-24T23:30:21.317Z,101097.53
2022-12-24T23:33:08.326Z,100985.59
2022-12-24T23:35:55.280Z,101101.81
2022-12-24T23:38:42.227Z,101045.75
2022-12-24T23:41:30.075Z,101106.13
2022-12-24T23:44:17.259Z,101114.72
2022-12-24T23:47:04.441Z,101107.69
2022-12-24T23:49:51.515Z,101077.75
2022-12-24T23:52:38.470Z,101125.00
2022-12-24T23:55:25.945Z,101130.16
2022-12-24T23:58:12.894Z,101121.41
